Buoy 53524

sailwx.info

Track history (hours):
 
Tides and Currents Weather Stations Pressure Air Temp Water Temp Dewpoint Dewpoint Depression Visibility Wind Speed Wind Dir Waves Ship Positions

Drifting buoy 53524

Last reported at 2015-Feb-28 16:00 UTC. Time now 2015-Feb-28 20:49 UTC.
Position S 15°45' E 086°37'.

Barometer 1011.6 mb
Water temperature 28.4 ° C

Date/timePositionNaut miles runAvg speedWind from/ knotsBaromVisibWave heightAir tempDewpointWater temp
2015-Feb-28 16:00S 15°45' E 086°37'1 1.1 1011.6 28.4
2015-Feb-28 15:00S 15°46' E 086°38'3 0.5 1011.2 28.4
2015-Feb-28 09:00S 15°48' E 086°40'1 0.7 1009.1 28.5
2015-Feb-28 08:00S 15°49' E 086°40'1 0.7 1009.6 28.5
2015-Feb-28 07:00S 15°49' E 086°39'0 0.0 1010.2 28.4
2015-Feb-28 06:00S 15°49' E 086°39'2 0.8 1011.2 28.4
2015-Feb-28 04:00S 15°51' E 086°40'1 0.3 1011.8 28.4
2015-Feb-27 23:00S 15°52' E 086°40'1 1.4 1009.6 28.3
2015-Feb-27 22:00S 15°53' E 086°40'0 0.0 1009.6 28.3
2015-Feb-27 21:00S 15°53' E 086°40'1 1.2 1009.9 28.3
2015-Feb-27 20:00S 15°54' E 086°39'0 0.0 1010.2 28.3
2015-Feb-27 18:00S 15°54' E 086°39'0 0.2 1011.4 28.4
2015-Feb-27 16:00S 15°54' E 086°40'1 0.2 1011.9 28.4
2015-Feb-27 12:00S 15°55' E 086°40'1 0.5 1010.0 28.4
2015-Feb-27 10:00S 15°56' E 086°40'3 0.5 1008.9 28.5
2015-Feb-27 03:00S 15°57' E 086°43'0 0.1 1011.3 28.4
2015-Feb-27 00:00S 15°57' E 086°43'1 0.4 1010.2 28.4
2015-Feb-26 21:00S 15°58' E 086°44'2 0.8 1009.5 28.4
2015-Feb-26 19:00S 15°60' E 086°44'1 0.8 1011.0 28.4
2015-Feb-26 18:00S 15°59' E 086°44'3 0.9 1011.8 28.4
2015-Feb-26 15:00S 15°57' E 086°43'3 3.3 1011.7 28.4
2015-Feb-26 14:00S 15°59' E 086°45'1 0.6 1010.9 28.4
2015-Feb-26 13:00S 16°00' E 086°45'1 0.7 1010.5 28.4
2015-Feb-26 11:00S 16°01' E 086°46'0 0.0 1009.3 28.4
2015-Feb-26 08:00S 16°01' E 086°46'1 0.3 1009.8 28.4
2015-Feb-26 04:00S 16°01' E 086°47'1 0.7 1011.3 28.4
2015-Feb-26 02:00S 16°02' E 086°48'0 0.1 1011.3 28.4
2015-Feb-26 00:00S 16°02' E 086°48'1 0.3 1010.2 28.4
2015-Feb-25 22:00S 16°03' E 086°49'0 0.0 1010.1 28.4
2015-Feb-25 21:00S 16°03' E 086°49'0 0.1 1010.3 28.4
2015-Feb-25 18:00S 16°03' E 086°49'1 0.6 1011.3 28.5
2015-Feb-25 16:00S 16°04' E 086°49'3 0.5 1012.0 28.5
2015-Feb-25 09:00S 16°08' E 086°49'0 0.1 1009.6 28.7
2015-Feb-25 08:00S 16°08' E 086°49'2 0.2 1009.9 28.7
2015-Feb-24 23:00S 16°09' E 086°50'0 0.0 1010.3 28.3
2015-Feb-24 22:00S 16°09' E 086°50'0 0.4 1010.1 28.2
2015-Feb-24 21:00S 16°10' E 086°50'0 0.0 1010.4 28.2
2015-Feb-24 20:00S 16°10' E 086°50'1 0.8 1011.0 28.2
2015-Feb-24 19:00S 16°11' E 086°50'1 0.1 1011.6 28.2
2015-Feb-24 15:00S 16°11' E 086°50'1 1.3 1012.4 28.4
2015-Feb-24 14:00S 16°12' E 086°51'2 0.5 1011.5 28.5
2015-Feb-24 10:00S 16°14' E 086°51'0 0.0 1010.2 28.5
2015-Feb-24 09:00S 16°14' E 086°51'2 1.9 1010.6 28.5
2015-Feb-24 08:00S 16°15' E 086°52'3 0.4 1011.1 28.5
2015-Feb-24 01:00S 16°18' E 086°51'1 0.4 1012.5 28.3
2015-Feb-23 23:00S 16°19' E 086°51'1 1.4 1011.5 28.2
2015-Feb-23 22:00S 16°20' E 086°50'2 0.5 1011.4 28.2
2015-Feb-23 19:00S 16°21' E 086°49'1 0.2 1012.7 28.2
2015-Feb-23 16:00S 16°21' E 086°49'1 0.5 1014.7 28.2
2015-Feb-23 15:00S 16°22' E 086°49'2 0.7 1014.5 28.2
2015-Feb-23 12:00S 16°21' E 086°47'0 0.1 1012.1 28.3
2015-Feb-23 10:00S 16°21' E 086°47'1 1.5 1011.2 28.4
2015-Feb-23 09:00S 16°21' E 086°49'0 0.0 1011.8 28.4
2015-Feb-23 08:00S 16°21' E 086°49'1 0.1 1012.3 28.4
2015-Feb-23 04:00S 16°22' E 086°48'0 0.1 1013.5 28.3
2015-Feb-23 03:00S 16°22' E 086°48'1 1.3 1014.2 28.3
2015-Feb-23 02:00S 16°21' E 086°49'1 0.6 1013.6 28.3
2015-Feb-23 00:00S 16°23' E 086°49'3 0.9 1011.8 28.3
2015-Feb-22 21:00S 16°25' E 086°50'3 0.6 1011.6 28.3
2015-Feb-22 16:00S 16°28' E 086°52'1 0.6 1013.6 28.3
2015-Feb-22 15:00S 16°28' E 086°52'5 1.0 1013.2 28.3
2015-Feb-22 10:00S 16°33' E 086°50'0 0.0 1011.2 28.4
2015-Feb-22 09:00S 16°33' E 086°50'3 2.7 1011.1 28.4
2015-Feb-22 08:00S 16°35' E 086°48'0 0.0 1011.6 28.4
2015-Feb-22 07:00S 16°35' E 086°48'3 0.8 1011.8 28.4
2015-Feb-22 04:00S 16°37' E 086°47'0 0.0 1011.6 28.3
2015-Feb-22 03:00S 16°37' E 086°47'0 0.0 1011.9 28.3
2015-Feb-21 23:00S 16°37' E 086°47'1 0.3 1010.0 28.3
2015-Feb-21 20:00S 16°38' E 086°47'2 0.2 1009.9 28.4
2015-Feb-21 12:00S 16°40' E 086°48'4 0.8 1007.8 28.4
2015-Feb-21 07:00S 16°43' E 086°51'0 0.0 1008.6 28.4
2015-Feb-21 06:00S 16°43' E 086°51'1 0.2 1009.3 28.5
2015-Feb-21 01:00S 16°43' E 086°51'2 2.0 1008.7 28.4
2015-Feb-21 00:00S 16°45' E 086°52'1 0.6 1008.1 28.4
2015-Feb-20 23:00S 16°45' E 086°51'4 1.4 1007.8 28.4
2015-Feb-20 20:00S 16°49' E 086°54'0 0.0 1008.5 28.4
2015-Feb-20 16:00S 16°49' E 086°54'1 0.2 1011.3 28.5
2015-Feb-20 11:00S 16°50' E 086°55'3 1.4 1008.9 28.6
2015-Feb-20 09:00S 16°53' E 086°55'0 0.0 1009.2 28.6
2015-Feb-20 08:00S 16°53' E 086°55'2 0.4 1009.5 28.6
2015-Feb-20 02:00S 16°53' E 086°57'6 0.4 1010.2 28.4
2015-Feb-19 09:00S 16°58' E 087°01'3 0.3 1008.1 28.7
2015-Feb-18 21:00S 17°00' E 087°04'1 0.3 1008.5 28.4
2015-Feb-18 18:00S 17°01' E 087°04'0 0.2 1010.2 28.4
2015-Feb-18 16:00S 17°01' E 087°04'   1010.8 28.4
Track history (hours):
 
Tides and Currents Weather Stations Pressure Air Temp Water Temp Dewpoint Dewpoint Depression Visibility Wind Speed Wind Dir Waves Ship Positions

Drifting buoy 53524

Last reported at 2015-Feb-28 16:00 UTC. Time now 2015-Feb-28 20:49 UTC.
Position S 15°45' E 086°37'.

Barometer 1011.6 mb
Water temperature 28.4 ° C

Date/timePositionNaut miles runAvg speedWind from/ knotsBaromVisibWave heightAir tempDewpointWater temp
2015-Feb-28 16:00S 15°45' E 086°37'1 1.1 1011.6 28.4
2015-Feb-28 15:00S 15°46' E 086°38'3 0.5 1011.2 28.4
2015-Feb-28 09:00S 15°48' E 086°40'1 0.7 1009.1 28.5
2015-Feb-28 08:00S 15°49' E 086°40'1 0.7 1009.6 28.5
2015-Feb-28 07:00S 15°49' E 086°39'0 0.0 1010.2 28.4
2015-Feb-28 06:00S 15°49' E 086°39'2 0.8 1011.2 28.4
2015-Feb-28 04:00S 15°51' E 086°40'1 0.3 1011.8 28.4
2015-Feb-27 23:00S 15°52' E 086°40'1 1.4 1009.6 28.3
2015-Feb-27 22:00S 15°53' E 086°40'0 0.0 1009.6 28.3
2015-Feb-27 21:00S 15°53' E 086°40'1 1.2 1009.9 28.3
2015-Feb-27 20:00S 15°54' E 086°39'0 0.0 1010.2 28.3
2015-Feb-27 18:00S 15°54' E 086°39'0 0.2 1011.4 28.4
2015-Feb-27 16:00S 15°54' E 086°40'1 0.2 1011.9 28.4
2015-Feb-27 12:00S 15°55' E 086°40'1 0.5 1010.0 28.4
2015-Feb-27 10:00S 15°56' E 086°40'3 0.5 1008.9 28.5
2015-Feb-27 03:00S 15°57' E 086°43'0 0.1 1011.3 28.4
2015-Feb-27 00:00S 15°57' E 086°43'1 0.4 1010.2 28.4
2015-Feb-26 21:00S 15°58' E 086°44'2 0.8 1009.5 28.4
2015-Feb-26 19:00S 15°60' E 086°44'1 0.8 1011.0 28.4
2015-Feb-26 18:00S 15°59' E 086°44'3 0.9 1011.8 28.4
2015-Feb-26 15:00S 15°57' E 086°43'3 3.3 1011.7 28.4
2015-Feb-26 14:00S 15°59' E 086°45'1 0.6 1010.9 28.4
2015-Feb-26 13:00S 16°00' E 086°45'1 0.7 1010.5 28.4
2015-Feb-26 11:00S 16°01' E 086°46'0 0.0 1009.3 28.4
2015-Feb-26 08:00S 16°01' E 086°46'1 0.3 1009.8 28.4
2015-Feb-26 04:00S 16°01' E 086°47'1 0.7 1011.3 28.4
2015-Feb-26 02:00S 16°02' E 086°48'0 0.1 1011.3 28.4
2015-Feb-26 00:00S 16°02' E 086°48'1 0.3 1010.2 28.4
2015-Feb-25 22:00S 16°03' E 086°49'0 0.0 1010.1 28.4
2015-Feb-25 21:00S 16°03' E 086°49'0 0.1 1010.3 28.4
2015-Feb-25 18:00S 16°03' E 086°49'1 0.6 1011.3 28.5
2015-Feb-25 16:00S 16°04' E 086°49'3 0.5 1012.0 28.5
2015-Feb-25 09:00S 16°08' E 086°49'0 0.1 1009.6 28.7
2015-Feb-25 08:00S 16°08' E 086°49'2 0.2 1009.9 28.7
2015-Feb-24 23:00S 16°09' E 086°50'0 0.0 1010.3 28.3
2015-Feb-24 22:00S 16°09' E 086°50'0 0.4 1010.1 28.2
2015-Feb-24 21:00S 16°10' E 086°50'0 0.0 1010.4 28.2
2015-Feb-24 20:00S 16°10' E 086°50'1 0.8 1011.0 28.2
2015-Feb-24 19:00S 16°11' E 086°50'1 0.1 1011.6 28.2
2015-Feb-24 15:00S 16°11' E 086°50'1 1.3 1012.4 28.4
2015-Feb-24 14:00S 16°12' E 086°51'2 0.5 1011.5 28.5
2015-Feb-24 10:00S 16°14' E 086°51'0 0.0 1010.2 28.5
2015-Feb-24 09:00S 16°14' E 086°51'2 1.9 1010.6 28.5
2015-Feb-24 08:00S 16°15' E 086°52'3 0.4 1011.1 28.5
2015-Feb-24 01:00S 16°18' E 086°51'1 0.4 1012.5 28.3
2015-Feb-23 23:00S 16°19' E 086°51'1 1.4 1011.5 28.2
2015-Feb-23 22:00S 16°20' E 086°50'2 0.5 1011.4 28.2
2015-Feb-23 19:00S 16°21' E 086°49'1 0.2 1012.7 28.2
2015-Feb-23 16:00S 16°21' E 086°49'1 0.5 1014.7 28.2
2015-Feb-23 15:00S 16°22' E 086°49'2 0.7 1014.5 28.2
2015-Feb-23 12:00S 16°21' E 086°47'0 0.1 1012.1 28.3
2015-Feb-23 10:00S 16°21' E 086°47'1 1.5 1011.2 28.4
2015-Feb-23 09:00S 16°21' E 086°49'0 0.0 1011.8 28.4
2015-Feb-23 08:00S 16°21' E 086°49'1 0.1 1012.3 28.4
2015-Feb-23 04:00S 16°22' E 086°48'0 0.1 1013.5 28.3
2015-Feb-23 03:00S 16°22' E 086°48'1 1.3 1014.2 28.3
2015-Feb-23 02:00S 16°21' E 086°49'1 0.6 1013.6 28.3
2015-Feb-23 00:00S 16°23' E 086°49'3 0.9 1011.8 28.3
2015-Feb-22 21:00S 16°25' E 086°50'3 0.6 1011.6 28.3
2015-Feb-22 16:00S 16°28' E 086°52'1 0.6 1013.6 28.3
2015-Feb-22 15:00S 16°28' E 086°52'5 1.0 1013.2 28.3
2015-Feb-22 10:00S 16°33' E 086°50'0 0.0 1011.2 28.4
2015-Feb-22 09:00S 16°33' E 086°50'3 2.7 1011.1 28.4
2015-Feb-22 08:00S 16°35' E 086°48'0 0.0 1011.6 28.4
2015-Feb-22 07:00S 16°35' E 086°48'3 0.8 1011.8 28.4
2015-Feb-22 04:00S 16°37' E 086°47'0 0.0 1011.6 28.3
2015-Feb-22 03:00S 16°37' E 086°47'0 0.0 1011.9 28.3
2015-Feb-21 23:00S 16°37' E 086°47'1 0.3 1010.0 28.3
2015-Feb-21 20:00S 16°38' E 086°47'2 0.2 1009.9 28.4
2015-Feb-21 12:00S 16°40' E 086°48'4 0.8 1007.8 28.4
2015-Feb-21 07:00S 16°43' E 086°51'0 0.0 1008.6 28.4
2015-Feb-21 06:00S 16°43' E 086°51'1 0.2 1009.3 28.5
2015-Feb-21 01:00S 16°43' E 086°51'2 2.0 1008.7 28.4
2015-Feb-21 00:00S 16°45' E 086°52'1 0.6 1008.1 28.4
2015-Feb-20 23:00S 16°45' E 086°51'4 1.4 1007.8 28.4
2015-Feb-20 20:00S 16°49' E 086°54'0 0.0 1008.5 28.4
2015-Feb-20 16:00S 16°49' E 086°54'1 0.2 1011.3 28.5
2015-Feb-20 11:00S 16°50' E 086°55'3 1.4 1008.9 28.6
2015-Feb-20 09:00S 16°53' E 086°55'0 0.0 1009.2 28.6
2015-Feb-20 08:00S 16°53' E 086°55'2 0.4 1009.5 28.6
2015-Feb-20 02:00S 16°53' E 086°57'6 0.4 1010.2 28.4
2015-Feb-19 09:00S 16°58' E 087°01'3 0.3 1008.1 28.7
2015-Feb-18 21:00S 17°00' E 087°04'1 0.3 1008.5 28.4
2015-Feb-18 18:00S 17°01' E 087°04'0 0.2 1010.2 28.4
2015-Feb-18 16:00S 17°01' E 087°04'   1010.8 28.4

Dump ship's entire track history